createdAt,value
2023-04-19T00:00:10.959Z,67.90
2023-04-19T00:01:33.192Z,67.83
2023-04-19T00:02:35.548Z,67.64
2023-04-19T00:03:37.365Z,67.45
2023-04-19T00:04:39.157Z,67.48
2023-04-19T00:05:40.997Z,67.46
2023-04-19T00:06:42.408Z,67.45
2023-04-19T00:07:43.858Z,67.39
2023-04-19T00:08:45.240Z,67.28
2023-04-19T00:09:46.716Z,67.21
2023-04-19T00:10:48.412Z,67.16
2023-04-19T00:11:49.894Z,67.14
2023-04-19T00:12:51.976Z,67.11
2023-04-19T00:13:53.460Z,67.06
2023-04-19T00:14:54.865Z,66.94
2023-04-19T00:15:56.374Z,66.72
2023-04-19T00:16:58.036Z,66.65
2023-04-19T00:17:59.880Z,66.64
2023-04-19T00:19:01.692Z,66.60
2023-04-19T00:20:05.357Z,66.62
2023-04-19T00:21:06.786Z,66.53
2023-04-19T00:22:08.276Z,66.59
2023-04-19T00:23:09.691Z,66.59
2023-04-19T00:24:11.067Z,66.61
2023-04-19T00:25:12.774Z,66.62
2023-04-19T00:26:15.225Z,66.61
2023-04-19T00:27:18.041Z,66.51
2023-04-19T00:28:19.500Z,66.51
2023-04-19T00:29:20.874Z,66.55
2023-04-19T00:30:22.332Z,66.61
2023-04-19T00:31:25.749Z,66.63
2023-04-19T00:32:27.352Z,66.61
2023-04-19T00:33:28.789Z,66.61
2023-04-19T00:34:32.292Z,66.66
2023-04-19T00:35:33.729Z,66.64
2023-04-19T00:36:35.214Z,66.56
2023-04-19T00:37:36.703Z,66.50
2023-04-19T00:38:40.066Z,66.48
2023-04-19T00:39:41.524Z,66.50
2023-04-19T00:40:42.974Z,66.51
2023-04-19T00:41:44.844Z,66.51
2023-04-19T00:42:46.268Z,66.47
2023-04-19T00:43:47.718Z,66.41
2023-04-19T00:44:49.129Z,66.41
2023-04-19T00:45:50.785Z,66.36
2023-04-19T00:46:56.802Z,66.28
2023-04-19T00:47:59.817Z,66.36
2023-04-19T00:49:01.556Z,66.37
2023-04-19T00:50:04.256Z,66.39
2023-04-19T00:51:06.319Z,66.38
2023-04-19T00:52:07.934Z,66.45
2023-04-19T00:53:15.301Z,66.54
2023-04-19T00:54:18.284Z,66.60
2023-04-19T00:55:19.992Z,66.63
2023-04-19T00:56:23.413Z,66.61
2023-04-19T00:57:28.999Z,66.62
2023-04-19T00:58:31.539Z,66.70
2023-04-19T00:59:34.563Z,66.71
2023-04-19T01:00:40.481Z,66.72
2023-04-19T01:01:42.093Z,66.79
2023-04-19T01:02:43.860Z,66.79
2023-04-19T01:03:46.714Z,66.74
2023-04-19T01:04:48.425Z,66.72
2023-04-19T01:05:49.932Z,66.69
2023-04-19T01:06:51.406Z,66.72
2023-04-19T01:07:52.847Z,66.72
2023-04-19T01:08:54.334Z,66.66
2023-04-19T01:09:57.309Z,66.62
2023-04-19T01:10:58.692Z,66.58
2023-04-19T01:12:04.423Z,66.63
2023-04-19T01:13:06.029Z,66.61
2023-04-19T01:14:08.156Z,66.65
2023-04-19T01:15:10.007Z,66.71
2023-04-19T01:16:11.527Z,66.77
2023-04-19T01:17:13.023Z,66.82
2023-04-19T01:18:15.197Z,66.83
2023-04-19T01:19:17.829Z,66.84
2023-04-19T01:20:19.634Z,66.97
2023-04-19T01:21:21.953Z,67.06
2023-04-19T01:22:23.617Z,67.18
2023-04-19T01:23:25.066Z,67.10
2023-04-19T01:24:26.581Z,67.18
2023-04-19T01:25:28.124Z,67.36
2023-04-19T01:26:29.572Z,67.44
2023-04-19T01:27:31.011Z,67.45
2023-04-19T01:28:32.589Z,67.44
2023-04-19T01:29:34.077Z,67.53
2023-04-19T01:31:29.820Z,67.64
2023-04-19T01:32:31.536Z,67.68
2023-04-19T01:33:33.256Z,67.83
2023-04-19T01:34:34.932Z,67.87
2023-04-19T01:35:38.997Z,67.99
2023-04-19T01:36:42.212Z,67.90
2023-04-19T01:37:43.629Z,67.93
2023-04-19T01:38:47.082Z,68.06
2023-04-19T01:39:48.677Z,68.20
2023-04-19T01:40:50.247Z,68.26
2023-04-19T01:41:51.638Z,68.24
2023-04-19T01:42:53.305Z,68.20
2023-04-19T01:43:54.733Z,68.28
2023-04-19T01:44:56.158Z,68.32
2023-04-19T01:45:57.694Z,68.27
2023-04-19T01:46:59.123Z,68.44
2023-04-19T01:48:04.048Z,68.41
2023-04-19T01:49:05.527Z,68.38
2023-04-19T01:50:07.583Z,68.49
2023-04-19T01:51:10.383Z,68.51
2023-04-19T01:52:11.819Z,68.57
2023-04-19T01:53:13.256Z,68.62
2023-04-19T01:54:14.947Z,68.57
2023-04-19T01:55:16.773Z,68.55
2023-04-19T01:56:18.558Z,68.57
2023-04-19T01:57:20.039Z,68.64
2023-04-19T01:58:22.319Z,68.62
2023-04-19T01:59:23.898Z,68.75
2023-04-19T02:00:25.649Z,68.67
2023-04-19T02:01:27.190Z,68.74
2023-04-19T02:02:28.827Z,68.68
2023-04-19T02:03:30.892Z,68.69
2023-04-19T02:04:33.451Z,68.67
2023-04-19T02:05:35.086Z,68.60
2023-04-19T02:06:36.553Z,68.65
2023-04-19T02:07:39.044Z,68.71
2023-04-19T02:08:42.184Z,68.64
2023-04-19T02:09:43.683Z,68.66
2023-04-19T02:10:45.241Z,68.66
2023-04-19T02:11:46.708Z,68.66
2023-04-19T02:12:48.623Z,68.65
2023-04-19T02:13:50.280Z,68.62
2023-04-19T02:14:51.830Z,68.62
2023-04-19T02:16:05.389Z,68.60
2023-04-19T02:17:06.834Z,68.58
2023-04-19T02:18:08.325Z,68.58
2023-04-19T02:19:09.810Z,68.70
2023-04-19T02:20:11.300Z,68.55
2023-04-19T02:21:13.088Z,68.60
2023-04-19T02:22:15.040Z,68.59
2023-04-19T02:23:16.536Z,68.56
2023-04-19T02:24:18.155Z,68.62
2023-04-19T02:25:19.708Z,68.58
2023-04-19T02:26:21.509Z,68.62
2023-04-19T02:27:22.960Z,68.59
2023-04-19T02:28:24.577Z,68.60
2023-04-19T02:29:26.033Z,68.65
2023-04-19T02:30:27.631Z,68.66
2023-04-19T02:31:29.111Z,68.64
2023-04-19T02:32:31.192Z,68.65
2023-04-19T02:33:32.803Z,68.65
2023-04-19T02:34:35.371Z,68.64
2023-04-19T02:35:36.862Z,68.67
2023-04-19T02:36:38.532Z,68.67
2023-04-19T02:37:40.034Z,68.72
2023-04-19T02:38:41.462Z,68.77
2023-04-19T02:39:42.918Z,68.71
2023-04-19T02:40:44.339Z,68.71
2023-04-19T02:41:46.008Z,68.71
2023-04-19T02:42:47.478Z,68.73
2023-04-19T02:43:48.906Z,68.76
2023-04-19T02:44:50.488Z,68.79
2023-04-19T02:45:52.400Z,68.90
2023-04-19T02:46:56.952Z,68.97
2023-04-19T02:47:58.996Z,69.00
2023-04-19T02:49:00.657Z,68.97
2023-04-19T02:50:02.199Z,69.00
2023-04-19T02:51:05.347Z,68.93
2023-04-19T02:52:07.963Z,68.94
2023-04-19T02:53:11.528Z,68.94
2023-04-19T02:54:13.989Z,68.96
2023-04-19T02:55:16.656Z,68.89
2023-04-19T02:56:19.051Z,68.87
2023-04-19T02:57:20.741Z,68.97
2023-04-19T02:58:23.062Z,68.96
2023-04-19T02:59:31.645Z,68.96
2023-04-19T03:00:35.141Z,68.99
2023-04-19T03:01:40.872Z,68.96
2023-04-19T03:02:43.616Z,68.92
2023-04-19T03:03:45.491Z,68.92
2023-04-19T03:04:47.402Z,68.89
2023-04-19T03:05:49.329Z,68.88
2023-04-19T03:06:52.078Z,68.87
2023-04-19T03:07:53.711Z,68.97
2023-04-19T03:08:55.195Z,68.90
2023-04-19T03:09:56.699Z,68.86
2023-04-19T03:10:58.409Z,68.81
2023-04-19T03:12:00.582Z,68.82
2023-04-19T03:13:02.075Z,68.86
2023-04-19T03:14:04.214Z,68.89
2023-04-19T03:15:07.801Z,68.89
2023-04-19T03:16:10.104Z,68.92
2023-04-19T03:17:11.772Z,68.95
2023-04-19T03:18:13.566Z,68.91
2023-04-19T03:19:16.536Z,68.92
2023-04-19T03:20:22.478Z,68.82
2023-04-19T03:21:26.905Z,68.78
2023-04-19T03:22:28.405Z,68.76
2023-04-19T03:23:30.184Z,68.68
2023-04-19T03:24:35.017Z,68.68
2023-04-19T03:25:50.478Z,68.71
2023-04-19T03:27:00.432Z,68.73
2023-04-19T03:28:04.206Z,68.68
2023-04-19T03:29:28.429Z,68.70
2023-04-19T03:30:39.727Z,68.67
2023-04-19T03:31:41.255Z,68.64
2023-04-19T03:32:44.196Z,68.66
2023-04-19T03:33:46.729Z,68.66
2023-04-19T03:34:48.246Z,68.67
2023-04-19T03:35:50.788Z,68.61
2023-04-19T03:36:52.309Z,68.66
2023-04-19T03:37:53.816Z,68.67
2023-04-19T03:38:55.476Z,68.70
2023-04-19T03:39:57.103Z,68.67
2023-04-19T03:41:03.505Z,68.58
2023-04-19T03:42:08.884Z,68.57
2023-04-19T03:43:16.868Z,68.52
2023-04-19T03:44:18.802Z,68.52
2023-04-19T03:45:20.711Z,68.54
2023-04-19T03:46:22.375Z,68.53
2023-04-19T03:47:24.407Z,68.45
2023-04-19T03:48:27.344Z,68.40
2023-04-19T03:49:28.813Z,68.40
2023-04-19T03:50:37.285Z,68.45
2023-04-19T03:51:39.298Z,68.41
2023-04-19T03:52:41.957Z,68.38
2023-04-19T03:53:43.669Z,68.36
2023-04-19T03:54:45.306Z,68.30
2023-04-19T03:56:00.439Z,68.29
2023-04-19T03:57:02.166Z,68.28
2023-04-19T03:58:03.794Z,68.29
2023-04-19T03:59:14.460Z,68.27
2023-04-19T04:00:17.312Z,68.25
2023-04-19T04:01:23.600Z,68.23
2023-04-19T04:02:25.755Z,68.15
2023-04-19T04:03:27.677Z,68.11
2023-04-19T04:04:29.886Z,68.11
2023-04-19T04:05:31.587Z,68.08
2023-04-19T04:06:34.855Z,68.03
2023-04-19T04:07:36.376Z,67.99
2023-04-19T04:08:38.241Z,67.93
2023-04-19T04:09:39.837Z,67.91
2023-04-19T04:10:41.517Z,67.78
2023-04-19T04:11:43.319Z,67.73
2023-04-19T04:12:45.033Z,67.58
2023-04-19T04:13:49.751Z,67.50
2023-04-19T04:14:54.070Z,67.49
2023-04-19T04:15:56.196Z,67.51
2023-04-19T04:16:57.734Z,67.46
2023-04-19T04:17:59.334Z,67.37
2023-04-19T04:19:00.955Z,67.33
2023-04-19T04:20:03.117Z,67.36
2023-04-19T04:21:05.600Z,67.32
2023-04-19T04:22:07.197Z,67.25
2023-04-19T04:23:10.116Z,67.18
2023-04-19T04:24:12.563Z,67.20
2023-04-19T04:25:21.140Z,67.25
2023-04-19T04:26:24.728Z,67.18
2023-04-19T04:27:31.481Z,67.13
2023-04-19T04:28:33.136Z,67.12
2023-04-19T04:29:36.210Z,66.92
2023-04-19T04:30:39.898Z,66.85
2023-04-19T04:31:42.994Z,66.85
2023-04-19T04:32:46.269Z,66.80
2023-04-19T04:33:48.033Z,66.74
2023-04-19T04:34:49.964Z,66.75
2023-04-19T04:35:58.438Z,66.68
2023-04-19T04:37:01.725Z,66.71
2023-04-19T04:38:11.109Z,66.72
2023-04-19T04:39:16.255Z,66.73
2023-04-19T04:40:17.930Z,66.73
2023-04-19T04:41:22.406Z,66.78
2023-04-19T04:42:24.241Z,66.71
2023-04-19T04:43:29.268Z,66.56
2023-04-19T04:44:31.064Z,66.62
2023-04-19T04:45:33.214Z,66.65
2023-04-19T04:46:38.068Z,66.61
2023-04-19T04:47:39.798Z,66.51
2023-04-19T04:48:41.371Z,66.39
2023-04-19T04:49:42.821Z,66.40
2023-04-19T04:50:44.282Z,66.42
2023-04-19T04:51:45.772Z,66.46
2023-04-19T04:52:47.965Z,66.41
2023-04-19T04:53:56.768Z,66.33
2023-04-19T04:54:58.264Z,66.34
2023-04-19T04:56:04.001Z,66.20
2023-04-19T04:57:05.842Z,66.22
2023-04-19T04:58:07.323Z,66.14
2023-04-19T04:59:31.705Z,66.08
2023-04-19T05:00:33.753Z,66.08
2023-04-19T05:01:38.795Z,65.91
2023-04-19T05:02:40.861Z,65.98
2023-04-19T05:03:42.422Z,65.94
2023-04-19T05:04:47.658Z,65.82
2023-04-19T05:05:49.150Z,65.89
2023-04-19T05:06:51.898Z,65.67
2023-04-19T05:07:56.835Z,65.51
2023-04-19T05:08:58.322Z,65.53
2023-04-19T05:10:06.303Z,65.63
2023-04-19T05:11:15.055Z,65.71
2023-04-19T05:12:16.510Z,65.73
2023-04-19T05:13:18.054Z,65.76
2023-04-19T05:14:19.657Z,65.78
2023-04-19T05:15:21.177Z,65.80
2023-04-19T05:16:26.737Z,65.73
2023-04-19T05:17:28.378Z,65.79
2023-04-19T05:18:29.904Z,65.83
2023-04-19T05:19:31.316Z,65.79
2023-04-19T05:20:36.650Z,65.82
2023-04-19T05:21:47.479Z,65.80
2023-04-19T05:22:49.333Z,65.56
2023-04-19T05:23:52.806Z,65.46
2023-04-19T05:24:54.456Z,65.33
2023-04-19T05:25:56.726Z,65.23
2023-04-19T05:26:59.147Z,65.01
2023-04-19T05:28:00.568Z,64.93
2023-04-19T05:29:06.170Z,64.89
2023-04-19T05:30:20.544Z,64.90
2023-04-19T05:31:22.326Z,64.82
2023-04-19T05:32:37.287Z,64.75
2023-04-19T05:33:39.578Z,64.45
2023-04-19T05:34:41.200Z,64.54
2023-04-19T05:35:46.190Z,64.22
2023-04-19T05:36:47.605Z,64.25
2023-04-19T05:37:49.978Z,64.09
2023-04-19T05:38:51.485Z,64.13
2023-04-19T05:39:53.074Z,64.10
2023-04-19T05:40:54.602Z,64.13
2023-04-19T05:41:56.107Z,64.14
2023-04-19T05:42:57.670Z,63.97
2023-04-19T05:44:00.197Z,63.64
2023-04-19T05:45:03.429Z,63.41
2023-04-19T05:46:06.903Z,63.29
2023-04-19T05:47:08.471Z,63.44
2023-04-19T05:48:45.787Z,63.58
2023-04-19T05:50:20.502Z,63.22
2023-04-19T05:51:42.389Z,63.11
2023-04-19T05:52:48.537Z,63.07
2023-04-19T05:53:50.037Z,63.12
2023-04-19T05:54:51.576Z,63.08
2023-04-19T05:55:53.489Z,62.77
2023-04-19T05:56:55.530Z,62.53
2023-04-19T05:57:58.178Z,62.18
2023-04-19T05:59:02.708Z,62.39
2023-04-19T06:00:05.300Z,62.43
2023-04-19T06:01:18.747Z,62.27
2023-04-19T06:02:20.461Z,62.02
2023-04-19T06:03:22.350Z,61.98
2023-04-19T06:04:24.791Z,61.69
2023-04-19T06:05:26.734Z,61.60
2023-04-19T06:06:28.652Z,61.75
2023-04-19T06:07:32.895Z,61.75
2023-04-19T06:08:39.762Z,61.27
2023-04-19T06:09:41.240Z,61.38
2023-04-19T06:11:51.509Z,60.96
2023-04-19T06:12:53.424Z,61.05
2023-04-19T06:13:54.895Z,61.05
2023-04-19T06:14:56.391Z,60.93
2023-04-19T06:15:58.559Z,61.04
2023-04-19T06:17:00.092Z,61.09
2023-04-19T06:18:01.562Z,61.16
2023-04-19T06:19:02.984Z,61.27
2023-04-19T06:20:07.190Z,61.35
2023-04-19T06:21:08.658Z,61.17
2023-04-19T06:22:10.315Z,61.20
2023-04-19T06:23:12.335Z,61.07
2023-04-19T06:24:14.115Z,61.26
2023-04-19T06:25:15.758Z,61.31
2023-04-19T06:26:17.328Z,61.35
2023-04-19T06:27:19.051Z,61.26
2023-04-19T06:28:20.513Z,60.98
2023-04-19T06:29:23.456Z,60.88
2023-04-19T06:30:25.374Z,60.96
2023-04-19T06:31:26.844Z,60.65
2023-04-19T06:32:28.481Z,60.74
2023-04-19T06:33:30.828Z,60.78
2023-04-19T06:34:32.306Z,60.96
2023-04-19T06:35:33.712Z,61.19
2023-04-19T06:36:35.312Z,61.38
2023-04-19T06:37:36.935Z,61.51
2023-04-19T06:38:38.506Z,61.58
2023-04-19T06:39:39.886Z,61.59
2023-04-19T06:40:41.298Z,61.55
2023-04-19T06:41:42.718Z,61.16
2023-04-19T06:42:50.945Z,60.99
2023-04-19T06:43:52.391Z,60.93
2023-04-19T06:44:56.419Z,61.09
2023-04-19T06:45:59.088Z,61.15
2023-04-19T06:47:00.588Z,61.23
2023-04-19T06:48:02.476Z,61.09
2023-04-19T06:49:04.190Z,61.16
2023-04-19T06:50:06.444Z,61.09
2023-04-19T06:51:07.900Z,61.02
2023-04-19T06:52:09.398Z,61.17
2023-04-19T06:53:10.820Z,61.11
2023-04-19T06:54:12.261Z,61.05
2023-04-19T06:55:13.768Z,60.76
2023-04-19T06:56:15.176Z,60.56
2023-04-19T06:57:17.761Z,60.38
2023-04-19T06:58:19.654Z,60.36
2023-04-19T06:59:21.094Z,60.21
2023-04-19T07:00:22.782Z,60.42
2023-04-19T07:01:24.303Z,60.34
2023-04-19T07:02:26.117Z,60.50
2023-04-19T07:03:28.349Z,60.52
2023-04-19T07:04:30.061Z,60.55
2023-04-19T07:05:31.761Z,60.34
2023-04-19T07:06:37.136Z,60.35
2023-04-19T07:07:40.509Z,60.34
2023-04-19T07:08:49.810Z,60.43
2023-04-19T07:09:51.976Z,60.33
2023-04-19T07:10:53.382Z,60.31
2023-04-19T07:11:54.944Z,60.38
2023-04-19T07:12:56.289Z,60.45
2023-04-19T07:13:59.179Z,60.49
2023-04-19T07:15:00.663Z,60.53
2023-04-19T07:16:06.663Z,60.53
2023-04-19T07:17:08.064Z,60.33
2023-04-19T07:18:10.518Z,60.42
2023-04-19T07:19:13.170Z,60.35
2023-04-19T07:20:15.380Z,60.46
2023-04-19T07:21:16.850Z,60.47
2023-04-19T07:22:18.387Z,60.03
2023-04-19T07:23:19.957Z,59.81
2023-04-19T07:24:21.793Z,59.99
2023-04-19T07:25:23.578Z,59.88
2023-04-19T07:26:25.049Z,59.80
2023-04-19T07:27:26.708Z,59.41
2023-04-19T07:28:28.796Z,59.01
2023-04-19T07:29:30.561Z,58.89
2023-04-19T07:30:32.149Z,59.51
2023-04-19T07:31:33.779Z,59.53
2023-04-19T07:32:35.574Z,59.59
2023-04-19T07:33:37.093Z,59.99
2023-04-19T07:34:40.530Z,60.42
2023-04-19T07:35:42.149Z,60.81
2023-04-19T07:36:43.684Z,60.98
2023-04-19T07:37:45.784Z,60.93
2023-04-19T07:38:47.452Z,61.08
2023-04-19T07:39:49.603Z,61.32
2023-04-19T07:40:51.762Z,61.62
2023-04-19T07:41:53.197Z,60.98
2023-04-19T07:42:55.104Z,60.61
2023-04-19T07:43:56.489Z,60.97
2023-04-19T07:44:59.236Z,61.02
2023-04-19T07:46:01.226Z,60.89
2023-04-19T07:47:04.899Z,60.29
2023-04-19T07:48:06.385Z,60.50
2023-04-19T07:49:07.795Z,60.33
2023-04-19T07:50:10.215Z,60.60
2023-04-19T07:51:16.706Z,60.80
2023-04-19T07:52:18.224Z,61.13
2023-04-19T07:53:19.897Z,61.43
2023-04-19T07:54:21.300Z,61.62
2023-04-19T07:55:23.105Z,61.92
2023-04-19T07:56:25.766Z,62.18
2023-04-19T07:57:27.175Z,62.44
2023-04-19T07:58:28.560Z,62.80
2023-04-19T07:59:32.688Z,62.95
2023-04-19T08:00:36.176Z,62.08
2023-04-19T08:01:37.803Z,61.80
2023-04-19T08:02:42.570Z,61.61
2023-04-19T08:03:44.303Z,61.27
2023-04-19T08:04:48.993Z,61.23
2023-04-19T08:05:50.843Z,61.15
2023-04-19T08:06:52.574Z,60.15
2023-04-19T08:07:54.002Z,59.86
2023-04-19T08:08:55.631Z,60.01
2023-04-19T08:09:57.107Z,59.94
2023-04-19T08:11:00.171Z,59.72
2023-04-19T08:12:03.405Z,59.83
2023-04-19T08:13:06.587Z,59.64
2023-04-19T08:14:18.481Z,59.11
2023-04-19T08:16:12.934Z,59.10
2023-04-19T08:17:55.790Z,60.16
2023-04-19T08:18:57.251Z,60.65
2023-04-19T08:19:58.900Z,61.01
2023-04-19T08:21:00.563Z,61.32
2023-04-19T08:22:03.864Z,61.52
2023-04-19T08:23:18.526Z,61.86
2023-04-19T08:24:23.972Z,62.15
2023-04-19T08:25:27.821Z,62.56
2023-04-19T08:26:29.260Z,62.94
2023-04-19T08:27:30.832Z,63.09
2023-04-19T08:28:32.346Z,63.11
2023-04-19T08:29:34.074Z,62.95
2023-04-19T08:30:35.467Z,62.65
2023-04-19T08:31:37.203Z,62.32
2023-04-19T08:32:38.904Z,62.23
2023-04-19T08:33:40.576Z,62.14
2023-04-19T08:34:41.946Z,62.29
2023-04-19T08:35:44.839Z,61.97
2023-04-19T08:36:55.937Z,61.76
2023-04-19T08:38:05.038Z,61.80
2023-04-19T08:39:29.000Z,61.75
2023-04-19T08:40:30.292Z,61.87
2023-04-19T08:41:31.773Z,62.06
2023-04-19T08:42:36.898Z,61.90
2023-04-19T08:43:42.763Z,61.91
2023-04-19T08:44:59.578Z,61.89
2023-04-19T08:46:08.596Z,61.99
2023-04-19T08:47:15.265Z,62.03
2023-04-19T08:48:23.732Z,62.17
2023-04-19T08:49:28.391Z,62.24
2023-04-19T08:50:38.848Z,62.30
2023-04-19T08:51:48.599Z,62.43
2023-04-19T08:52:55.973Z,62.42
2023-04-19T08:54:03.445Z,62.56
2023-04-19T08:55:07.285Z,62.81
2023-04-19T08:56:20.640Z,62.70
2023-04-19T08:57:32.337Z,62.86
2023-04-19T08:59:38.665Z,62.57
2023-04-19T09:00:40.794Z,62.46
2023-04-19T09:01:44.483Z,62.49
2023-04-19T09:02:51.579Z,62.64
2023-04-19T09:04:03.355Z,63.06
2023-04-19T09:05:08.974Z,62.85
2023-04-19T09:06:11.815Z,62.90
2023-04-19T09:07:23.729Z,63.00
2023-04-19T09:08:29.800Z,63.02
2023-04-19T09:09:37.148Z,63.04
2023-04-19T09:10:52.593Z,63.21
2023-04-19T09:11:54.246Z,63.14
2023-04-19T09:13:04.295Z,63.14
2023-04-19T09:14:10.275Z,63.19
2023-04-19T09:15:11.736Z,63.02
2023-04-19T09:16:23.893Z,62.98
2023-04-19T09:17:25.571Z,62.87
2023-04-19T09:18:28.832Z,62.99
2023-04-19T09:19:45.748Z,63.17
2023-04-19T09:20:47.306Z,63.50
2023-04-19T09:21:51.107Z,63.61
2023-04-19T09:23:07.815Z,63.77
2023-04-19T09:24:09.899Z,63.86
2023-04-19T09:25:43.761Z,64.05
2023-04-19T09:26:57.141Z,64.14
2023-04-19T09:28:14.577Z,64.24
2023-04-19T09:29:17.085Z,64.39
2023-04-19T09:30:31.457Z,64.72
2023-04-19T09:31:50.588Z,64.69
2023-04-19T09:32:53.296Z,65.25
2023-04-19T09:33:55.178Z,64.95
2023-04-19T09:34:59.111Z,65.14
2023-04-19T09:36:01.178Z,65.49
2023-04-19T09:37:17.825Z,65.55
2023-04-19T09:39:00.652Z,65.60
2023-04-19T09:40:22.042Z,65.77
2023-04-19T09:41:26.567Z,66.20
2023-04-19T09:44:05.467Z,66.72
2023-04-19T09:45:29.189Z,66.90
2023-04-19T09:46:36.602Z,67.11
2023-04-19T09:47:38.291Z,67.13
2023-04-19T09:48:39.875Z,67.54
2023-04-19T09:49:49.207Z,67.57
2023-04-19T09:51:00.725Z,67.88
2023-04-19T09:52:05.154Z,67.96
2023-04-19T09:53:06.722Z,68.29
2023-04-19T09:54:10.040Z,68.70
2023-04-19T09:55:25.390Z,68.25
2023-04-19T09:56:29.232Z,68.32
2023-04-19T09:57:31.847Z,68.45
2023-04-19T09:58:46.914Z,68.49
2023-04-19T09:59:51.323Z,69.30
2023-04-19T10:01:02.784Z,68.87
2023-04-19T10:02:14.137Z,69.12
2023-04-19T10:03:17.297Z,69.29
2023-04-19T10:04:33.552Z,69.59
2023-04-19T10:05:45.109Z,69.39
2023-04-19T10:07:18.683Z,69.66
2023-04-19T10:08:13.753Z,69.85
2023-04-19T10:09:16.269Z,69.92
2023-04-19T10:10:21.510Z,70.14
2023-04-19T10:11:30.898Z,70.27
2023-04-19T10:12:52.281Z,70.43
2023-04-19T10:13:58.668Z,70.25
2023-04-19T10:15:00.162Z,70.39
2023-04-19T10:16:15.548Z,71.13
2023-04-19T10:17:22.210Z,70.58
2023-04-19T10:18:24.549Z,70.69
2023-04-19T10:19:27.836Z,70.86
2023-04-19T10:20:39.084Z,71.19
2023-04-19T10:21:41.862Z,71.36
2023-04-19T10:22:43.607Z,71.24
2023-04-19T10:23:45.743Z,71.39
2023-04-19T10:25:10.356Z,71.64
2023-04-19T10:26:11.969Z,71.68
2023-04-19T10:27:13.966Z,72.23
2023-04-19T10:28:16.259Z,72.39
2023-04-19T10:30:13.514Z,72.51
2023-04-19T10:31:15.466Z,72.66
2023-04-19T10:32:17.276Z,72.57
2023-04-19T10:33:27.213Z,72.73
2023-04-19T10:34:39.455Z,72.63
2023-04-19T10:35:44.324Z,73.08
2023-04-19T10:36:46.101Z,73.15
2023-04-19T10:38:12.007Z,73.26
2023-04-19T10:39:39.549Z,73.36
2023-04-19T10:40:59.592Z,73.36
2023-04-19T10:42:01.484Z,73.68
2023-04-19T10:43:12.060Z,73.75
2023-04-19T10:44:13.386Z,73.84
2023-04-19T10:45:34.525Z,74.18
2023-04-19T10:46:39.391Z,74.10
2023-04-19T10:47:43.956Z,74.27
2023-04-19T10:49:05.052Z,74.11
2023-04-19T10:50:06.842Z,74.15
2023-04-19T10:51:18.418Z,74.06
2023-04-19T10:52:28.913Z,74.07
2023-04-19T10:53:43.770Z,74.44
2023-04-19T10:54:55.336Z,74.47
2023-04-19T10:55:56.891Z,74.56
2023-04-19T10:57:03.807Z,74.81
2023-04-19T10:58:06.716Z,74.41
2023-04-19T10:59:14.108Z,74.38
2023-04-19T11:00:21.972Z,74.40
2023-04-19T11:01:42.707Z,74.46
2023-04-19T11:02:44.267Z,74.44
2023-04-19T11:03:45.856Z,74.44
2023-04-19T11:04:50.711Z,74.48
2023-04-19T11:06:15.870Z,74.51
2023-04-19T11:07:17.842Z,74.40
2023-04-19T11:08:22.931Z,74.27
2023-04-19T11:09:49.120Z,74.20
2023-04-19T11:10:52.743Z,74.27
2023-04-19T11:12:00.831Z,74.20
2023-04-19T11:13:02.371Z,74.31
2023-04-19T11:14:04.030Z,74.30
2023-04-19T11:15:08.792Z,73.97
2023-04-19T11:16:10.446Z,74.01
2023-04-19T11:17:26.709Z,74.10
2023-04-19T11:18:29.478Z,73.84
2023-04-19T11:19:31.057Z,74.02
2023-04-19T11:20:32.459Z,73.63
2023-04-19T11:21:40.028Z,73.41
2023-04-19T11:22:44.033Z,73.28
2023-04-19T11:23:48.581Z,73.18
2023-04-19T11:24:50.207Z,73.21
2023-04-19T11:25:52.463Z,73.01
2023-04-19T11:26:56.209Z,72.84
2023-04-19T11:27:59.700Z,72.87
2023-04-19T11:29:01.294Z,72.78
2023-04-19T11:30:13.800Z,72.74
2023-04-19T11:31:15.775Z,72.64
2023-04-19T11:32:20.893Z,72.67
2023-04-19T11:33:25.057Z,72.59
2023-04-19T11:34:26.448Z,72.66
2023-04-19T11:35:29.794Z,72.48
2023-04-19T11:36:31.902Z,72.47
2023-04-19T11:37:38.229Z,72.26
2023-04-19T11:38:39.871Z,72.22
2023-04-19T11:39:46.648Z,72.16
2023-04-19T11:40:58.182Z,72.07
2023-04-19T11:42:00.201Z,72.06
2023-04-19T11:43:04.305Z,72.08
2023-04-19T11:44:16.539Z,71.99
2023-04-19T11:45:34.374Z,71.88
2023-04-19T11:46:38.254Z,71.78
2023-04-19T11:47:50.139Z,71.69
2023-04-19T11:48:53.084Z,71.63
2023-04-19T11:49:55.751Z,71.60
2023-04-19T11:50:58.372Z,71.70
2023-04-19T11:52:03.099Z,71.57
2023-04-19T11:53:23.672Z,71.64
2023-04-19T11:54:26.257Z,71.59
2023-04-19T11:55:32.699Z,71.70
2023-04-19T11:56:34.150Z,71.45
2023-04-19T11:57:35.814Z,71.32
2023-04-19T11:58:47.523Z,71.32
2023-04-19T12:00:07.186Z,71.11
2023-04-19T12:01:21.330Z,70.79
2023-04-19T12:02:22.906Z,70.76
2023-04-19T12:03:26.382Z,70.71
2023-04-19T12:04:28.396Z,70.71
2023-04-19T12:05:30.734Z,70.62
2023-04-19T12:06:32.231Z,70.54
2023-04-19T12:07:33.865Z,70.50
2023-04-19T12:08:37.182Z,70.44
2023-04-19T12:09:38.939Z,70.29
2023-04-19T12:10:56.065Z,70.24
2023-04-19T12:11:57.714Z,70.21
2023-04-19T12:12:59.660Z,70.06
2023-04-19T12:14:12.067Z,69.95
2023-04-19T12:15:13.728Z,69.72
2023-04-19T12:16:27.332Z,69.72
2023-04-19T12:17:28.889Z,69.61
2023-04-19T12:18:50.996Z,69.57
2023-04-19T12:19:52.661Z,69.18
2023-04-19T12:20:54.696Z,69.33
2023-04-19T12:22:07.479Z,69.29
2023-04-19T12:23:10.516Z,69.19
2023-04-19T12:24:14.978Z,69.07
2023-04-19T12:25:16.907Z,68.79
2023-04-19T12:26:19.154Z,68.70
2023-04-19T12:27:20.889Z,68.59
2023-04-19T12:28:22.432Z,68.58
2023-04-19T12:29:24.089Z,68.52
2023-04-19T12:30:25.855Z,68.39
2023-04-19T12:31:28.291Z,67.98
2023-04-19T12:32:30.085Z,68.32
2023-04-19T12:33:31.887Z,68.31
2023-04-19T12:34:33.660Z,68.26
2023-04-19T12:35:35.460Z,68.08
2023-04-19T12:36:37.041Z,67.92
2023-04-19T12:37:38.747Z,67.60
2023-04-19T12:38:40.387Z,67.25
2023-04-19T12:39:41.937Z,67.23
2023-04-19T12:40:43.358Z,67.11
2023-04-19T12:41:47.528Z,66.81
2023-04-19T12:42:49.365Z,66.65
2023-04-19T12:43:50.786Z,66.46
2023-04-19T12:44:52.294Z,66.56
2023-04-19T12:45:53.692Z,66.69
2023-04-19T12:46:56.718Z,66.23
2023-04-19T12:47:58.544Z,66.20
2023-04-19T12:49:00.032Z,66.06
2023-04-19T12:50:01.534Z,66.08
2023-04-19T12:51:03.515Z,65.97
2023-04-19T12:52:06.374Z,65.60
2023-04-19T12:53:08.764Z,65.37
2023-04-19T12:54:10.340Z,65.05
2023-04-19T12:55:11.846Z,64.78
2023-04-19T12:56:15.045Z,64.56
2023-04-19T12:57:16.561Z,64.10
2023-04-19T12:58:20.300Z,63.44
2023-04-19T12:59:21.716Z,63.36
2023-04-19T13:00:24.061Z,63.67
2023-04-19T13:01:25.528Z,63.92
2023-04-19T13:02:27.634Z,63.20
2023-04-19T13:03:32.426Z,63.16
2023-04-19T13:04:34.202Z,63.41
2023-04-19T13:05:35.783Z,63.79
2023-04-19T13:06:38.230Z,63.89
2023-04-19T13:07:40.305Z,63.92
2023-04-19T13:08:46.621Z,63.99
2023-04-19T13:09:49.482Z,63.87
2023-04-19T13:10:50.940Z,63.44
2023-04-19T13:11:54.276Z,62.72
2023-04-19T13:12:56.158Z,62.85
2023-04-19T13:13:57.956Z,62.87
2023-04-19T13:15:00.178Z,63.08
2023-04-19T13:16:03.188Z,62.99
2023-04-19T13:17:04.923Z,62.88
2023-04-19T13:18:06.562Z,62.72
2023-04-19T13:19:08.282Z,62.74
2023-04-19T13:20:10.228Z,62.72
2023-04-19T13:21:11.704Z,62.64
2023-04-19T13:22:13.130Z,62.49
2023-04-19T13:23:14.987Z,62.65
2023-04-19T13:24:17.053Z,62.64
2023-04-19T13:25:18.713Z,62.42
2023-04-19T13:26:20.256Z,62.55
2023-04-19T13:27:21.656Z,62.66
2023-04-19T13:28:23.235Z,62.53
2023-04-19T13:29:24.850Z,62.51
2023-04-19T13:30:26.499Z,62.62
2023-04-19T13:31:28.099Z,62.41
2023-04-19T13:32:29.931Z,62.24
2023-04-19T13:33:31.674Z,62.34
2023-04-19T13:34:33.465Z,62.36
2023-04-19T13:35:34.963Z,62.35
2023-04-19T13:36:37.021Z,62.01
2023-04-19T13:37:39.585Z,61.82
2023-04-19T13:38:41.206Z,61.80
2023-04-19T13:39:42.880Z,61.64
2023-04-19T13:40:44.626Z,61.61
2023-04-19T13:41:46.055Z,61.77
2023-04-19T13:42:47.496Z,61.92
2023-04-19T13:43:49.160Z,62.10
2023-04-19T13:44:51.188Z,61.99
2023-04-19T13:45:52.679Z,61.97
2023-04-19T13:46:54.220Z,61.98
2023-04-19T13:47:55.756Z,61.96
2023-04-19T13:48:57.375Z,62.02
2023-04-19T13:49:59.003Z,61.89
2023-04-19T13:51:00.453Z,62.15
2023-04-19T13:52:01.928Z,62.14